^^
Meteo Knjazevac Station Historical Data
Daily Summary for April 12, 2022 Units:  Both    English   Metric
Daily Weekly Monthly Yearly Custom
  High: Low: Average:
Temperature: 87.6 °F /  30.9 °C 55.2 °F /  12.9 °C 71.2 °F /  21.8 °C
Dew Point: 69.2 °F /  20.7 °C 54.9 °F /  12.7 °C 62 °F /  16.7 °C
Humidity: 99% 47.9% 77%
Wind Speed: 11.7mph /  18.8km/h - 3.7mph /  6km/h
Wind Gust: 13mph /  20.9km/h - -
Wind- - South
Pressure: 30.09 in /  1018.8 hPa 29.96 in /  1014.4 hPa -
Precipitation: 0.00 in /  0 mm    
Historical Graphs
 
 
Tabular Data for April 12, 2022
Time Temperature Dew Point Pressure Wind Wind Speed Wind Gust Humidity Rainfall Rate (Hourly) solar Conditions
00:04 61.9 °F /  16.6 °C 60.4 °F /  15.8 °C 30.08in /  1018.5hPa WSW 1mph /  1.6km/h 2mph /  3.2km/h 95% 0.00in /  0mm 0 W/m2
00:09 61.9 °F /  16.6 °C 60.4 °F /  15.8 °C 30.08in /  1018.5hPa Calm   2mph /  3.2km/h 95% 0.00in /  0mm 0 W/m2
00:14 61.7 °F /  16.5 °C 60.3 °F /  15.7 °C 30.08in /  1018.5hPa Calm     95% 0.00in /  0mm 0 W/m2
00:19 61.6 °F /  16.4 °C 60.2 °F /  15.7 °C 30.08in /  1018.5hPa North 0.3mph /  0.5km/h   95% 0.00in /  0mm 0 W/m2
00:22 61.5 °F /  16.4 °C 60.2 °F /  15.7 °C 30.08in /  1018.5hPa Calm   1mph /  1.6km/h 95.6% 0.00in /  0mm 0 W/m2
00:28 61.3 °F /  16.3 °C 60.2 °F /  15.7 °C 30.08in /  1018.5hPa West 0.7mph /  1.1km/h 0.2mph /  0.3km/h 96% 0.00in /  0mm 0 W/m2
00:33 61.1 °F /  16.2 °C 59.9 °F /  15.5 °C 30.08in /  1018.5hPa Calm     96% 0.00in /  0mm 0 W/m2
00:39 61 °F /  16.1 °C 60 °F /  15.6 °C 30.08in /  1018.5hPa Calm     96.8% 0.00in /  0mm 0 W/m2
00:44 60.9 °F /  16.1 °C 60 °F /  15.6 °C 30.08in /  1018.5hPa Calm     97.1% 0.00in /  0mm 0 W/m2
00:49 60.8 °F /  16 °C 60.2 °F /  15.7 °C 30.08in /  1018.5hPa Calm     98% 0.00in /  0mm 0 W/m2
00:54 60.6 °F /  15.9 °C 60.1 °F /  15.6 °C 30.08in /  1018.5hPa NW 0.9mph /  1.4km/h 0.7mph /  1.1km/h 98% 0.00in /  0mm 0 W/m2
00:59 60.6 °F /  15.9 °C 60.1 °F /  15.6 °C 30.08in /  1018.5hPa NNW 0.6mph /  1km/h 2mph /  3.2km/h 98% 0.00in /  0mm 0 W/m2
01:04 60.4 °F /  15.8 °C 59.9 °F /  15.5 °C 30.08in /  1018.5hPa Calm   1mph /  1.6km/h 98% 0.00in /  0mm 0 W/m2
01:09 60.3 °F /  15.7 °C 59.7 °F /  15.4 °C 30.08in /  1018.5hPa Calm     98% 0.00in /  0mm 0 W/m2
01:14 60.2 °F /  15.7 °C 59.6 °F /  15.3 °C 30.08in /  1018.5hPa North 0.5mph /  0.8km/h 0.2mph /  0.3km/h 98% 0.00in /  0mm 0 W/m2
01:18 60.1 °F /  15.6 °C 59.5 °F /  15.3 °C 30.08in /  1018.5hPa NNW 1.6mph /  2.6km/h 1.3mph /  2.1km/h 98% 0.00in /  0mm 0 W/m2
01:24 60 °F /  15.6 °C 59.4 °F /  15.2 °C 30.08in /  1018.5hPa West 1.7mph /  2.7km/h 2mph /  3.2km/h 98% 0.00in /  0mm 0 W/m2
01:29 59.9 °F /  15.5 °C 59.3 °F /  15.2 °C 30.08in /  1018.5hPa SW 0.7mph /  1.1km/h 2mph /  3.2km/h 98% 0.00in /  0mm 0 W/m2
01:34 59.8 °F /  15.4 °C 59.3 °F /  15.2 °C 30.08in /  1018.5hPa West 0.4mph /  0.6km/h 1mph /  1.6km/h 98.3% 0.00in /  0mm 0 W/m2
01:39 59.7 °F /  15.4 °C 59.3 °F /  15.2 °C 30.08in /  1018.5hPa West 1.5mph /  2.4km/h 1mph /  1.6km/h 98.8% 0.00in /  0mm 0 W/m2
01:44 59.6 °F /  15.3 °C 59.2 °F /  15.1 °C 30.08in /  1018.5hPa WSW 2.2mph /  3.5km/h 2mph /  3.2km/h 98.3% 0.00in /  0mm 0 W/m2
01:48 59.5 °F /  15.3 °C 59.3 °F /  15.2 °C 30.08in /  1018.5hPa NNE 2mph /  3.2km/h 2mph /  3.2km/h 99% 0.00in /  0mm 0 W/m2
01:54 59.5 °F /  15.3 °C 59.3 °F /  15.2 °C 30.08in /  1018.5hPa East 2.4mph /  3.9km/h 3mph /  4.8km/h 99% 0.00in /  0mm 0 W/m2
01:59 59.4 °F /  15.2 °C 59.1 °F /  15.1 °C 30.08in /  1018.5hPa SSE 0.9mph /  1.4km/h 2mph /  3.2km/h 99% 0.00in /  0mm 0 W/m2
02:04 59.4 °F /  15.2 °C 59.1 °F /  15.1 °C 30.08in /  1018.5hPa Calm     99% 0.00in /  0mm 0 W/m2
02:09 59.4 °F /  15.2 °C 59 °F /  15 °C 30.08in /  1018.5hPa SW 0.8mph /  1.3km/h 0.7mph /  1.1km/h 98.8% 0.00in /  0mm 0 W/m2
02:14 59.1 °F /  15.1 °C 58.5 °F /  14.7 °C 30.08in /  1018.5hPa Calm   1mph /  1.6km/h 98% 0.00in /  0mm 0 W/m2
02:18 58.9 °F /  14.9 °C 58.5 °F /  14.7 °C 30.09in /  1018.8hPa SW 0.5mph /  0.8km/h 0.7mph /  1.1km/h 98.7% 0.00in /  0mm 0 W/m2
02:24 58.7 °F /  14.8 °C 58.5 °F /  14.7 °C 30.08in /  1018.5hPa WSW 1.5mph /  2.4km/h 2mph /  3.2km/h 99% 0.00in /  0mm 0 W/m2
02:29 58.6 °F /  14.8 °C 58.4 °F /  14.7 °C 30.09in /  1018.8hPa WSW 1.4mph /  2.3km/h 2mph /  3.2km/h 99% 0.00in /  0mm 0 W/m2
02:34 58.5 °F /  14.7 °C 58.3 °F /  14.6 °C 30.09in /  1018.8hPa West 1.3mph /  2.1km/h 2mph /  3.2km/h 99% 0.00in /  0mm 0 W/m2
02:39 58.4 °F /  14.7 °C 58.1 °F /  14.5 °C 30.09in /  1018.8hPa WNW 1.1mph /  1.8km/h 2mph /  3.2km/h 99% 0.00in /  0mm 0 W/m2
02:44 58.3 °F /  14.6 °C 58 °F /  14.4 °C 30.09in /  1018.8hPa NW 0.6mph /  1km/h 1mph /  1.6km/h 99% 0.00in /  0mm 0 W/m2
02:49 58.2 °F /  14.6 °C 57.9 °F /  14.4 °C 30.09in /  1018.8hPa NW 1.4mph /  2.3km/h 1.3mph /  2.1km/h 99% 0.00in /  0mm 0 W/m2
02:54 58.1 °F /  14.5 °C 57.8 °F /  14.3 °C 30.09in /  1018.8hPa WNW 0.8mph /  1.3km/h 2mph /  3.2km/h 99% 0.00in /  0mm 0 W/m2
02:59 57.9 °F /  14.4 °C 57.6 °F /  14.2 °C 30.09in /  1018.8hPa WNW 1.1mph /  1.8km/h 0.7mph /  1.1km/h 99% 0.00in /  0mm 0 W/m2
03:04 57.8 °F /  14.3 °C 57.6 °F /  14.2 °C 30.09in /  1018.8hPa WNW 1.6mph /  2.6km/h 1.3mph /  2.1km/h 99% 0.00in /  0mm 0 W/m2
03:09 57.7 °F /  14.3 °C 57.5 °F /  14.2 °C 30.09in /  1018.8hPa West 0.4mph /  0.6km/h 2mph /  3.2km/h 99% 0.00in /  0mm 0 W/m2
03:14 57.6 °F /  14.2 °C 57.3 °F /  14.1 °C 30.09in /  1018.8hPa Calm     99% 0.00in /  0mm 0 W/m2
03:19 57.6 °F /  14.2 °C 57.3 °F /  14.1 °C 30.09in /  1018.8hPa Calm     99% 0.00in /  0mm 0 W/m2
03:24 57.4 °F /  14.1 °C 57.1 °F /  13.9 °C 30.09in /  1018.8hPa WSW 0.8mph /  1.3km/h 0.2mph /  0.3km/h 99% 0.00in /  0mm 0 W/m2
03:29 57.3 °F /  14.1 °C 57 °F /  13.9 °C 30.09in /  1018.8hPa WSW 0.4mph /  0.6km/h 1mph /  1.6km/h 99% 0.00in /  0mm 0 W/m2
03:34 57.2 °F /  14 °C 56.9 °F /  13.8 °C 30.09in /  1018.8hPa West 1.1mph /  1.8km/h 1.1mph /  1.8km/h 99% 0.00in /  0mm 0 W/m2
03:39 57 °F /  13.9 °C 56.7 °F /  13.7 °C 30.09in /  1018.8hPa WNW 1.1mph /  1.8km/h 1mph /  1.6km/h 99% 0.00in /  0mm 0 W/m2
03:44 57 °F /  13.9 °C 56.7 °F /  13.7 °C 30.09in /  1018.8hPa WNW 1.3mph /  2.1km/h 1.1mph /  1.8km/h 99% 0.00in /  0mm 0 W/m2
03:49 56.8 °F /  13.8 °C 56.6 °F /  13.7 °C 30.09in /  1018.8hPa NW 1mph /  1.6km/h 2mph /  3.2km/h 99% 0.00in /  0mm 0 W/m2
03:53 56.8 °F /  13.8 °C 56.6 °F /  13.7 °C 30.09in /  1018.8hPa NNW 1.4mph /  2.3km/h 0.7mph /  1.1km/h 99% 0.00in /  0mm 0 W/m2
03:59 56.8 °F /  13.8 °C 56.6 °F /  13.7 °C 30.09in /  1018.8hPa NW 1.1mph /  1.8km/h 2mph /  3.2km/h 99% 0.00in /  0mm 0 W/m2
04:04 56.8 °F /  13.8 °C 56.6 °F /  13.7 °C 30.09in /  1018.8hPa WNW 1.5mph /  2.4km/h 1.3mph /  2.1km/h 99% 0.00in /  0mm 0 W/m2
04:09 56.8 °F /  13.8 °C 56.6 °F /  13.7 °C 30.08in /  1018.5hPa WNW 2mph /  3.2km/h 2mph /  3.2km/h 99% 0.00in /  0mm 0 W/m2
04:14 56.8 °F /  13.8 °C 56.6 °F /  13.7 °C 30.08in /  1018.5hPa NW 1.7mph /  2.7km/h 2mph /  3.2km/h 99% 0.00in /  0mm 0 W/m2
04:19 56.8 °F /  13.8 °C 56.6 °F /  13.7 °C 30.08in /  1018.5hPa NNW 1.9mph /  3.1km/h 2mph /  3.2km/h 99% 0.00in /  0mm 0 W/m2
04:24 56.8 °F /  13.8 °C 56.6 °F /  13.7 °C 30.08in /  1018.5hPa North 1.1mph /  1.8km/h 2mph /  3.2km/h 99% 0.00in /  0mm 0 W/m2
04:29 56.8 °F /  13.8 °C 56.6 °F /  13.7 °C 30.08in /  1018.5hPa NNW 2.2mph /  3.5km/h 2mph /  3.2km/h 99% 0.00in /  0mm 0 W/m2
04:34 56.8 °F /  13.8 °C 56.5 °F /  13.6 °C 30.08in /  1018.5hPa West 0.4mph /  0.6km/h 2mph /  3.2km/h 99% 0.00in /  0mm 0 W/m2
04:39 56.7 °F /  13.7 °C 56.4 °F /  13.6 °C 30.08in /  1018.5hPa WNW 0.5mph /  0.8km/h 1mph /  1.6km/h 99% 0.00in /  0mm 0 W/m2
04:44 56.5 °F /  13.6 °C 56.2 °F /  13.4 °C 30.08in /  1018.5hPa WNW 0.9mph /  1.4km/h 1.3mph /  2.1km/h 99% 0.00in /  0mm 0 W/m2
04:49 56.4 °F /  13.6 °C 56.1 °F /  13.4 °C 30.08in /  1018.5hPa NW 1.7mph /  2.7km/h 2mph /  3.2km/h 99% 0.00in /  0mm 0 W/m2
04:54 56.5 °F /  13.6 °C 56.2 °F /  13.4 °C 30.08in /  1018.5hPa Calm     99% 0.00in /  0mm 0 W/m2
04:59 56.4 °F /  13.6 °C 56.1 °F /  13.4 °C 30.08in /  1018.5hPa Calm     99% 0.00in /  0mm 0 W/m2
05:04 56.3 °F /  13.5 °C 56 °F /  13.3 °C 30.08in /  1018.5hPa North 0.3mph /  0.5km/h 0.2mph /  0.3km/h 99% 0.00in /  0mm 0 W/m2
05:09 56.3 °F /  13.5 °C 56 °F /  13.3 °C 30.08in /  1018.5hPa North 0.3mph /  0.5km/h 1mph /  1.6km/h 99% 0.00in /  0mm 0 W/m2
05:14 56.3 °F /  13.5 °C 56 °F /  13.3 °C 30.08in /  1018.5hPa Calm     99% 0.00in /  0mm 0 W/m2
05:19 56.1 °F /  13.4 °C 55.8 °F /  13.2 °C 30.08in /  1018.5hPa Calm     99% 0.00in /  0mm 0 W/m2
05:24 56 °F /  13.3 °C 55.7 °F /  13.2 °C 30.08in /  1018.5hPa Calm     99% 0.00in /  0mm 1 W/m2
05:29 55.9 °F /  13.3 °C 55.6 °F /  13.1 °C 30.08in /  1018.5hPa Calm     99% 0.00in /  0mm 3 W/m2
05:34 55.8 °F /  13.2 °C 55.5 °F /  13.1 °C 30.08in /  1018.5hPa Calm     99% 0.00in /  0mm 5 W/m2
05:39 55.8 °F /  13.2 °C 55.5 °F /  13.1 °C 30.08in /  1018.5hPa North 0.4mph /  0.6km/h 0.4mph /  0.6km/h 99% 0.00in /  0mm 8 W/m2
05:44 55.6 °F /  13.1 °C 55.3 °F /  12.9 °C 30.08in /  1018.5hPa NNW 1.1mph /  1.8km/h 1.1mph /  1.8km/h 99% 0.00in /  0mm 10 W/m2
05:49 55.6 °F /  13.1 °C 55.3 °F /  12.9 °C 30.08in /  1018.5hPa NNW 1.1mph /  1.8km/h 1mph /  1.6km/h 99% 0.00in /  0mm 16 W/m2
05:54 55.6 °F /  13.1 °C 55.3 °F /  12.9 °C 30.08in /  1018.5hPa North 0.4mph /  0.6km/h 0.9mph /  1.4km/h 99% 0.00in /  0mm 22 W/m2
05:59 55.5 °F /  13.1 °C 55.2 °F /  12.9 °C 30.08in /  1018.5hPa NNW 1.1mph /  1.8km/h 1mph /  1.6km/h 99% 0.00in /  0mm 26 W/m2
06:04 55.4 °F /  13 °C 55.1 °F /  12.8 °C 30.09in /  1018.8hPa WNW 0.5mph /  0.8km/h 1mph /  1.6km/h 99% 0.00in /  0mm 34 W/m2
06:09 55.2 °F /  12.9 °C 54.9 °F /  12.7 °C 30.09in /  1018.8hPa Calm   1mph /  1.6km/h 99% 0.00in /  0mm 40 W/m2
06:14 55.2 °F /  12.9 °C 54.9 °F /  12.7 °C 30.09in /  1018.8hPa Calm     99% 0.00in /  0mm 42 W/m2
06:19 55.4 °F /  13 °C 55.1 °F /  12.8 °C 30.09in /  1018.8hPa Calm     99% 0.00in /  0mm 57 W/m2
06:24 55.6 °F /  13.1 °C 55.3 °F /  12.9 °C 30.09in /  1018.8hPa Calm     99% 0.00in /  0mm 70 W/m2
06:29 55.6 °F /  13.1 °C 55.3 °F /  12.9 °C 30.09in /  1018.8hPa North 0.4mph /  0.6km/h 0.2mph /  0.3km/h 99% 0.00in /  0mm 71 W/m2
06:34 55.8 °F /  13.2 °C 55.5 °F /  13.1 °C 30.09in /  1018.8hPa NNW 0.7mph /  1.1km/h 1mph /  1.6km/h 99% 0.00in /  0mm 76 W/m2
06:39 55.9 °F /  13.3 °C 55.6 °F /  13.1 °C 30.09in /  1018.8hPa NNW 0.7mph /  1.1km/h 1mph /  1.6km/h 99% 0.00in /  0mm 90 W/m2
06:44 55.9 °F /  13.3 °C 55.7 °F /  13.2 °C 30.09in /  1018.8hPa North 0.8mph /  1.3km/h 1mph /  1.6km/h 99% 0.00in /  0mm 112 W/m2
06:49 56.1 °F /  13.4 °C 55.8 °F /  13.2 °C 30.09in /  1018.8hPa Calm   2mph /  3.2km/h 99% 0.00in /  0mm 137 W/m2
06:54 56.4 °F /  13.6 °C 56.1 °F /  13.4 °C 30.09in /  1018.8hPa NNW 1mph /  1.6km/h 0.7mph /  1.1km/h 99% 0.00in /  0mm 154 W/m2
06:59 56.6 °F /  13.7 °C 56.3 °F /  13.5 °C 30.09in /  1018.8hPa WNW 1mph /  1.6km/h 1mph /  1.6km/h 99% 0.00in /  0mm 162 W/m2
07:04 56.8 °F /  13.8 °C 56.6 °F /  13.7 °C 30.09in /  1018.8hPa West 0.5mph /  0.8km/h 1mph /  1.6km/h 99% 0.00in /  0mm 173 W/m2
07:09 56.9 °F /  13.8 °C 56.7 °F /  13.7 °C 30.09in /  1018.8hPa WSW 0.5mph /  0.8km/h 1mph /  1.6km/h 99% 0.00in /  0mm 191 W/m2
07:14 57.3 °F /  14.1 °C 57 °F /  13.9 °C 30.09in /  1018.8hPa WSW 1.5mph /  2.4km/h 1.6mph /  2.6km/h 99% 0.00in /  0mm 201 W/m2
07:19 57.5 °F /  14.2 °C 57.2 °F /  14 °C 30.09in /  1018.8hPa WSW 2.2mph /  3.5km/h 2mph /  3.2km/h 99% 0.00in /  0mm 200 W/m2
07:24 57.7 °F /  14.3 °C 57.4 °F /  14.1 °C 30.09in /  1018.8hPa West 1.1mph /  1.8km/h 2mph /  3.2km/h 99% 0.00in /  0mm 161 W/m2
07:28 57.9 °F /  14.4 °C 57.6 °F /  14.2 °C 30.09in /  1018.8hPa WNW 1.2mph /  1.9km/h 1mph /  1.6km/h 99% 0.00in /  0mm 143 W/m2
07:34 58.2 °F /  14.6 °C 57.8 °F /  14.3 °C 30.09in /  1018.8hPa NW 2.1mph /  3.4km/h 2mph /  3.2km/h 99% 0.00in /  0mm 137 W/m2
07:39 58.4 °F /  14.7 °C 58.1 °F /  14.5 °C 30.09in /  1018.8hPa NW 0.4mph /  0.6km/h 2mph /  3.2km/h 99% 0.00in /  0mm 162 W/m2
07:44 58.7 °F /  14.8 °C 58.4 °F /  14.7 °C 30.09in /  1018.8hPa NW 1.5mph /  2.4km/h 1.1mph /  1.8km/h 99% 0.00in /  0mm 189 W/m2
07:49 59 °F /  15 °C 58.7 °F /  14.8 °C 30.09in /  1018.8hPa WSW 1.8mph /  2.9km/h 2mph /  3.2km/h 99% 0.00in /  0mm 201 W/m2
07:54 59.4 °F /  15.2 °C 59.2 °F /  15.1 °C 30.09in /  1018.8hPa SSW 2mph /  3.2km/h 2mph /  3.2km/h 99% 0.00in /  0mm 233 W/m2
07:59 59.7 °F /  15.4 °C 59.4 °F /  15.2 °C 30.09in /  1018.8hPa SW 2.1mph /  3.4km/h 2mph /  3.2km/h 99% 0.00in /  0mm 273 W/m2
08:04 59.9 °F /  15.5 °C 59.6 °F /  15.3 °C 30.09in /  1018.8hPa SW 2.2mph /  3.5km/h 2mph /  3.2km/h 99% 0.00in /  0mm 280 W/m2
08:09 60.2 °F /  15.7 °C 59.9 °F /  15.5 °C 30.09in /  1018.8hPa WSW 2mph /  3.2km/h 2mph /  3.2km/h 99% 0.00in /  0mm 301 W/m2
08:14 60.4 °F /  15.8 °C 60.2 °F /  15.7 °C 30.09in /  1018.8hPa West 1.8mph /  2.9km/h 2mph /  3.2km/h 99% 0.00in /  0mm 311 W/m2
08:19 60.9 °F /  16.1 °C 60.6 °F /  15.9 °C 30.09in /  1018.8hPa WSW 2.1mph /  3.4km/h 2mph /  3.2km/h 99% 0.00in /  0mm 298 W/m2
08:24 61.3 °F /  16.3 °C 61 °F /  16.1 °C 30.09in /  1018.8hPa SW 1.5mph /  2.4km/h 2mph /  3.2km/h 99% 0.00in /  0mm 294 W/m2
08:29 61.8 °F /  16.6 °C 61.4 °F /  16.3 °C 30.09in /  1018.8hPa SW 1.2mph /  1.9km/h 2mph /  3.2km/h 98.8% 0.00in /  0mm 318 W/m2
08:34 62.5 °F /  16.9 °C 61.6 °F /  16.4 °C 30.09in /  1018.8hPa SW 1.1mph /  1.8km/h 1mph /  1.6km/h 97% 0.00in /  0mm 351 W/m2
08:39 63.2 °F /  17.3 °C 62 °F /  16.7 °C 30.09in /  1018.8hPa West 1.7mph /  2.7km/h 1.3mph /  2.1km/h 95.9% 0.00in /  0mm 406 W/m2
08:42 64 °F /  17.8 °C 62.5 °F /  16.9 °C 30.09in /  1018.8hPa SW 1.5mph /  2.4km/h 2mph /  3.2km/h 95% 0.00in /  0mm 406 W/m2
08:49 64.7 °F /  18.2 °C 62.7 °F /  17.1 °C 30.09in /  1018.8hPa SSW 2.7mph /  4.3km/h 2.2mph /  3.5km/h 93.4% 0.00in /  0mm 399 W/m2
08:54 64.9 °F /  18.3 °C 62.4 °F /  16.9 °C 30.09in /  1018.8hPa South 1.7mph /  2.7km/h 3mph /  4.8km/h 91.5% 0.00in /  0mm 469 W/m2
08:59 65.5 °F /  18.6 °C 62.8 °F /  17.1 °C 30.09in /  1018.8hPa WSW 1.9mph /  3.1km/h 2mph /  3.2km/h 91% 0.00in /  0mm 469 W/m2
09:04 66.2 °F /  19 °C 63.4 °F /  17.4 °C 30.09in /  1018.8hPa SW 2mph /  3.2km/h 2mph /  3.2km/h 90.5% 0.00in /  0mm 416 W/m2
09:09 66.9 °F /  19.4 °C 63.7 °F /  17.6 °C 30.09in /  1018.8hPa SW 1.7mph /  2.7km/h 2mph /  3.2km/h 89.5% 0.00in /  0mm 451 W/m2
09:14 67.4 °F /  19.7 °C 63.8 °F /  17.7 °C 30.09in /  1018.8hPa West 2.3mph /  3.7km/h 3mph /  4.8km/h 88.1% 0.00in /  0mm 527 W/m2
09:19 68.3 °F /  20.2 °C 64 °F /  17.8 °C 30.09in /  1018.8hPa SW 2.4mph /  3.9km/h 1.8mph /  2.9km/h 86% 0.00in /  0mm 607 W/m2
09:24 69.3 °F /  20.7 °C 64.5 °F /  18.1 °C 30.09in /  1018.8hPa South 4.4mph /  7.1km/h 3.4mph /  5.5km/h 84.7% 0.00in /  0mm 607 W/m2
09:29 69.5 °F /  20.8 °C 64.8 °F /  18.2 °C 30.08in /  1018.5hPa SSE 4.5mph /  7.2km/h 5mph /  8km/h 84.9% 0.00in /  0mm 541 W/m2
09:34 69.8 °F /  21 °C 64.8 °F /  18.2 °C 30.08in /  1018.5hPa SSE 3mph /  4.8km/h 5mph /  8km/h 84% 0.00in /  0mm 503 W/m2
09:38 70.1 °F /  21.2 °C 64.9 °F /  18.3 °C 30.08in /  1018.5hPa SSW 3mph /  4.8km/h 4mph /  6.4km/h 83.7% 0.00in /  0mm 503 W/m2
09:44 70.3 °F /  21.3 °C 65.3 °F /  18.5 °C 30.08in /  1018.5hPa SSW 3.4mph /  5.5km/h 3mph /  4.8km/h 84.2% 0.00in /  0mm 568 W/m2
09:49 70.7 °F /  21.5 °C 65.1 °F /  18.4 °C 30.08in /  1018.5hPa SW 3.9mph /  6.3km/h 5mph /  8km/h 82.4% 0.00in /  0mm 672 W/m2
09:54 71.2 °F /  21.8 °C 65.5 °F /  18.6 °C 30.08in /  1018.5hPa North 6.2mph /  10km/h 5mph /  8km/h 82.3% 0.00in /  0mm 700 W/m2
09:59 71.7 °F /  22.1 °C 65.4 °F /  18.6 °C 30.08in /  1018.5hPa NE 3.4mph /  5.5km/h 7mph /  11.3km/h 80.6% 0.00in /  0mm 664 W/m2
10:04 72.1 °F /  22.3 °C 65.7 °F /  18.7 °C 30.08in /  1018.5hPa NNE 6.2mph /  10km/h 4.5mph /  7.2km/h 80.4% 0.00in /  0mm 770 W/m2
10:09 72.8 °F /  22.7 °C 66.3 °F /  19.1 °C 30.08in /  1018.5hPa NNE 5.8mph /  9.3km/h 3.8mph /  6.1km/h 80% 0.00in /  0mm 769 W/m2
10:14 73.5 °F /  23.1 °C 66.7 °F /  19.3 °C 30.07in /  1018.2hPa NNE 6.7mph /  10.8km/h 9mph /  14.5km/h 79.1% 0.00in /  0mm 744 W/m2
10:19 74.1 °F /  23.4 °C 66.6 °F /  19.2 °C 30.07in /  1018.2hPa NNE 7.7mph /  12.4km/h 9mph /  14.5km/h 77.5% 0.00in /  0mm 758 W/m2
10:24 74 °F /  23.3 °C 66.4 °F /  19.1 °C 30.07in /  1018.2hPa NE 7.5mph /  12.1km/h 9mph /  14.5km/h 77.2% 0.00in /  0mm 843 W/m2
10:29 74.4 °F /  23.6 °C 66.6 °F /  19.2 °C 30.07in /  1018.2hPa NE 7mph /  11.3km/h 8mph /  12.9km/h 76.7% 0.00in /  0mm 861 W/m2
10:34 75.1 °F /  23.9 °C 67.4 °F /  19.7 °C 30.07in /  1018.2hPa NE 6.9mph /  11.1km/h 4.5mph /  7.2km/h 77% 0.00in /  0mm 808 W/m2
10:39 75.7 °F /  24.3 °C 67.2 °F /  19.6 °C 30.07in /  1018.2hPa NNE 5.4mph /  8.7km/h 4.9mph /  7.9km/h 74.9% 0.00in /  0mm 732 W/m2
10:44 75.5 °F /  24.2 °C 66.6 °F /  19.2 °C 30.07in /  1018.2hPa NNE 5.8mph /  9.3km/h 7mph /  11.3km/h 74.1% 0.00in /  0mm 743 W/m2
10:49 75.6 °F /  24.2 °C 66.6 °F /  19.2 °C 30.07in /  1018.2hPa ENE 6.6mph /  10.6km/h 7mph /  11.3km/h 73.8% 0.00in /  0mm 615 W/m2
10:53 75.7 °F /  24.3 °C 66.8 °F /  19.3 °C 30.06in /  1017.8hPa ENE 7mph /  11.3km/h 8mph /  12.9km/h 73.9% 0.00in /  0mm 678 W/m2
10:59 75.7 °F /  24.3 °C 66.6 °F /  19.2 °C 30.06in /  1017.8hPa ENE 4.7mph /  7.6km/h 8mph /  12.9km/h 73.4% 0.00in /  0mm 749 W/m2
11:04 76.1 °F /  24.5 °C 67.2 °F /  19.6 °C 30.06in /  1017.8hPa ENE 4.3mph /  6.9km/h 6mph /  9.7km/h 74.1% 0.00in /  0mm 563 W/m2
11:09 76.8 °F /  24.9 °C 67.9 °F /  19.9 °C 30.06in /  1017.8hPa NNE 3.6mph /  5.8km/h 5mph /  8km/h 74.2% 0.00in /  0mm 453 W/m2
11:14 76.9 °F /  24.9 °C 67.5 °F /  19.7 °C 30.06in /  1017.8hPa NNE 3.7mph /  6km/h 5mph /  8km/h 72.6% 0.00in /  0mm 861 W/m2
11:19 77.3 °F /  25.2 °C 68.3 °F /  20.2 °C 30.06in /  1017.8hPa SE 3.8mph /  6.1km/h 5mph /  8km/h 73.9% 0.00in /  0mm 861 W/m2
11:24 78.1 °F /  25.6 °C 68.8 °F /  20.4 °C 30.06in /  1017.8hPa SSW 4.2mph /  6.8km/h 6mph /  9.7km/h 73.3% 0.00in /  0mm 802 W/m2
11:29 78.9 °F /  26.1 °C 69.2 °F /  20.7 °C 30.06in /  1017.8hPa SW 3.7mph /  6km/h 5mph /  8km/h 72.3% 0.00in /  0mm 759 W/m2
11:34 79.1 °F /  26.2 °C 68.9 °F /  20.5 °C 30.06in /  1017.8hPa WSW 4.1mph /  6.6km/h 5mph /  8km/h 71.3% 0.00in /  0mm 877 W/m2
11:39 79.2 °F /  26.2 °C 68.6 °F /  20.3 °C 30.06in /  1017.8hPa SW 4.3mph /  6.9km/h 5mph /  8km/h 70.1% 0.00in /  0mm 875 W/m2
11:44 79.5 °F /  26.4 °C 69.1 °F /  20.6 °C 30.05in /  1017.5hPa WNW 5.6mph /  9km/h 6mph /  9.7km/h 70.4% 0.00in /  0mm 720 W/m2
11:49 79.7 °F /  26.5 °C 68.9 °F /  20.5 °C 30.05in /  1017.5hPa North 5.6mph /  9km/h 7mph /  11.3km/h 69.6% 0.00in /  0mm 679 W/m2
11:54 80 °F /  26.7 °C 68.7 °F /  20.4 °C 30.05in /  1017.5hPa NNE 5.8mph /  9.3km/h 6mph /  9.7km/h 68.8% 0.00in /  0mm 749 W/m2
11:59 80.1 °F /  26.7 °C 68.1 °F /  20.1 °C 30.05in /  1017.5hPa NE 6.8mph /  10.9km/h 4.7mph /  7.6km/h 67.2% 0.00in /  0mm 636 W/m2
12:03 80.1 °F /  26.7 °C 68.5 °F /  20.3 °C 30.05in /  1017.5hPa ENE 4.7mph /  7.6km/h 8mph /  12.9km/h 68% 0.00in /  0mm 945 W/m2
12:09 80.7 °F /  27.1 °C 68.8 °F /  20.4 °C 30.04in /  1017.2hPa ENE 7.4mph /  11.9km/h 7mph /  11.3km/h 67.2% 0.00in /  0mm 1022 W/m2
12:14 81.4 °F /  27.4 °C 68.4 °F /  20.2 °C 30.04in /  1017.2hPa ENE 6.7mph /  10.8km/h 10mph /  16.1km/h 64.9% 0.00in /  0mm 1016 W/m2
12:19 81.9 °F /  27.7 °C 68 °F /  20 °C 30.04in /  1017.2hPa ENE 5.1mph /  8.2km/h 8mph /  12.9km/h 62.9% 0.00in /  0mm 995 W/m2
12:24 81.8 °F /  27.7 °C 67.3 °F /  19.6 °C 30.04in /  1017.2hPa ENE 6.5mph /  10.5km/h 7mph /  11.3km/h 61.8% 0.00in /  0mm 998 W/m2
12:29 82 °F /  27.8 °C 68.1 °F /  20.1 °C 30.04in /  1017.2hPa ENE 9.1mph /  14.6km/h 10mph /  16.1km/h 62.8% 0.00in /  0mm 1019 W/m2
12:34 82.3 °F /  27.9 °C 67.4 °F /  19.7 °C 30.03in /  1016.8hPa NE 8.7mph /  14km/h 10mph /  16.1km/h 60.8% 0.00in /  0mm 1002 W/m2
12:39 82.9 °F /  28.3 °C 68.2 °F /  20.1 °C 30.03in /  1016.8hPa NE 7.4mph /  11.9km/h 2.2mph /  3.5km/h 61.2% 0.00in /  0mm 989 W/m2
12:44 83.6 °F /  28.7 °C 68.2 °F /  20.1 °C 30.03in /  1016.8hPa NNE 7.5mph /  12.1km/h 7mph /  11.3km/h 60% 0.00in /  0mm 965 W/m2
12:49 83.9 °F /  28.8 °C 67.7 °F /  19.8 °C 30.03in /  1016.8hPa NNE 9.6mph /  15.4km/h 9mph /  14.5km/h 58.3% 0.00in /  0mm 1018 W/m2
12:54 84 °F /  28.9 °C 67.7 °F /  19.8 °C 30.02in /  1016.5hPa North 9.5mph /  15.3km/h 13mph /  20.9km/h 58.1% 0.00in /  0mm 970 W/m2
12:59 84 °F /  28.9 °C 67.5 °F /  19.7 °C 30.02in /  1016.5hPa North 10.4mph /  16.7km/h 13mph /  20.9km/h 57.6% 0.00in /  0mm 988 W/m2
13:03 84.3 °F /  29.1 °C 67.8 °F /  19.9 °C 30.02in /  1016.5hPa NNE 9.6mph /  15.4km/h 12mph /  19.3km/h 57.9% 0.00in /  0mm 934 W/m2
13:09 84.3 °F /  29.1 °C 67.3 °F /  19.6 °C 30.02in /  1016.5hPa North 11.7mph /  18.8km/h 6.9mph /  11.1km/h 56.8% 0.00in /  0mm 801 W/m2
13:14 83.3 °F /  28.5 °C 66.4 °F /  19.1 °C 30.02in /  1016.5hPa NE 9.2mph /  14.8km/h 13mph /  20.9km/h 56.8% 0.00in /  0mm 272 W/m2
13:19 82.5 °F /  28.1 °C 65.9 °F /  18.8 °C 30.02in /  1016.5hPa ENE 7mph /  11.3km/h 3.6mph /  5.8km/h 57.3% 0.00in /  0mm 250 W/m2
13:24 82.1 °F /  27.8 °C 65.3 °F /  18.5 °C 30.02in /  1016.5hPa ENE 7mph /  11.3km/h 7mph /  11.3km/h 57% 0.00in /  0mm 254 W/m2
13:27 81.9 °F /  27.7 °C 65.4 °F /  18.6 °C 30.02in /  1016.5hPa ENE 5.7mph /  9.2km/h 9mph /  14.5km/h 57.6% 0.00in /  0mm 261 W/m2
13:34 81.8 °F /  27.7 °C 65.4 °F /  18.6 °C 30.02in /  1016.5hPa NNE 6.3mph /  10.1km/h 8mph /  12.9km/h 57.6% 0.00in /  0mm 642 W/m2
13:39 82.4 °F /  28 °C 65.8 °F /  18.8 °C 30.02in /  1016.5hPa NNE 6mph /  9.7km/h 7mph /  11.3km/h 57.3% 0.00in /  0mm 1008 W/m2
13:44 83.6 °F /  28.7 °C 65.6 °F /  18.7 °C 30.01in /  1016.1hPa NNE 7.4mph /  11.9km/h 7mph /  11.3km/h 54.9% 0.00in /  0mm 964 W/m2
13:49 84.3 °F /  29.1 °C 65.3 °F /  18.5 °C 30.01in /  1016.1hPa NNE 7.8mph /  12.6km/h 8mph /  12.9km/h 53.2% 0.00in /  0mm 936 W/m2
13:54 84.4 °F /  29.1 °C 65.7 °F /  18.7 °C 30.01in /  1016.1hPa NNE 7.4mph /  11.9km/h 10mph /  16.1km/h 53.5% 0.00in /  0mm 909 W/m2
13:59 84.6 °F /  29.2 °C 64.9 °F /  18.3 °C 30.01in /  1016.1hPa North 9.5mph /  15.3km/h 8mph /  12.9km/h 51.8% 0.00in /  0mm 886 W/m2
14:04 84.8 °F /  29.3 °C 65.4 °F /  18.6 °C 30.01in /  1016.1hPa North 6.9mph /  11.1km/h 4.7mph /  7.6km/h 52.3% 0.00in /  0mm 883 W/m2
14:09 85.2 °F /  29.6 °C 65.7 °F /  18.7 °C 30.01in /  1016.1hPa North 5mph /  8km/h 6mph /  9.7km/h 52.2% 0.00in /  0mm 900 W/m2
14:14 85.5 °F /  29.7 °C 65.6 °F /  18.7 °C 30.00in /  1015.8hPa North 4.5mph /  7.2km/h 7mph /  11.3km/h 51.5% 0.00in /  0mm 916 W/m2
14:19 85.3 °F /  29.6 °C 65.1 °F /  18.4 °C 30.00in /  1015.8hPa North 4.9mph /  7.9km/h 6mph /  9.7km/h 51% 0.00in /  0mm 930 W/m2
14:24 85.8 °F /  29.9 °C 66.2 °F /  19 °C 30.00in /  1015.8hPa North 7.8mph /  12.6km/h 6.7mph /  10.8km/h 52% 0.00in /  0mm 375 W/m2
14:29 85.7 °F /  29.8 °C 65.3 °F /  18.5 °C 30.00in /  1015.8hPa NNE 5.9mph /  9.5km/h 12mph /  19.3km/h 50.8% 0.00in /  0mm 232 W/m2
14:34 84.9 °F /  29.4 °C 65.3 °F /  18.5 °C 30.00in /  1015.8hPa NNE 5.3mph /  8.5km/h 8mph /  12.9km/h 52% 0.00in /  0mm 324 W/m2
14:39 84.6 °F /  29.2 °C 65.7 °F /  18.7 °C 29.99in /  1015.5hPa NNE 6.4mph /  10.3km/h 6mph /  9.7km/h 53.3% 0.00in /  0mm 848 W/m2
14:44 85 °F /  29.4 °C 66.1 °F /  18.9 °C 29.99in /  1015.5hPa NNE 4.8mph /  7.7km/h 8mph /  12.9km/h 53.2% 0.00in /  0mm 828 W/m2
14:49 85.6 °F /  29.8 °C 65.4 °F /  18.6 °C 29.99in /  1015.5hPa NNE 6mph /  9.7km/h 8mph /  12.9km/h 51% 0.00in /  0mm 844 W/m2
14:54 85.3 °F /  29.6 °C 64.6 °F /  18.1 °C 29.99in /  1015.5hPa ENE 10.1mph /  16.3km/h 6mph /  9.7km/h 50.1% 0.00in /  0mm 867 W/m2
14:59 85.1 °F /  29.5 °C 65.5 °F /  18.6 °C 29.99in /  1015.5hPa ENE 5.5mph /  8.9km/h 12mph /  19.3km/h 52% 0.00in /  0mm 267 W/m2
15:04 84.6 °F /  29.2 °C 65.2 °F /  18.4 °C 29.99in /  1015.5hPa NNE 5.9mph /  9.5km/h 6mph /  9.7km/h 52.4% 0.00in /  0mm 791 W/m2
15:09 84.7 °F /  29.3 °C 65.6 °F /  18.7 °C 29.99in /  1015.5hPa North 6.4mph /  10.3km/h 8mph /  12.9km/h 52.8% 0.00in /  0mm 772 W/m2
15:14 85.4 °F /  29.7 °C 65.5 °F /  18.6 °C 29.98in /  1015.1hPa NNW 6.8mph /  10.9km/h 10mph /  16.1km/h 51.4% 0.00in /  0mm 758 W/m2
15:19 85.9 °F /  29.9 °C 65.4 °F /  18.6 °C 29.99in /  1015.5hPa North 6.8mph /  10.9km/h 9mph /  14.5km/h 50.5% 0.00in /  0mm 746 W/m2
15:24 86.1 °F /  30.1 °C 64.6 °F /  18.1 °C 29.98in /  1015.1hPa NNE 6.1mph /  9.8km/h 7mph /  11.3km/h 48.9% 0.00in /  0mm 745 W/m2
15:29 85.9 °F /  29.9 °C 64.5 °F /  18.1 °C 29.98in /  1015.1hPa NE 8.6mph /  13.8km/h 10mph /  16.1km/h 49% 0.00in /  0mm 744 W/m2
15:34 85.9 °F /  29.9 °C 64.7 °F /  18.2 °C 29.98in /  1015.1hPa ENE 7.5mph /  12.1km/h 13mph /  20.9km/h 49.4% 0.00in /  0mm 716 W/m2
15:39 86.4 °F /  30.2 °C 65 °F /  18.3 °C 29.98in /  1015.1hPa NNE 7mph /  11.3km/h 8mph /  12.9km/h 49.1% 0.00in /  0mm 701 W/m2
15:44 86.9 °F /  30.5 °C 65.7 °F /  18.7 °C 29.98in /  1015.1hPa NNE 8.4mph /  13.5km/h 9mph /  14.5km/h 49.3% 0.00in /  0mm 704 W/m2
15:49 87.2 °F /  30.7 °C 65.6 °F /  18.7 °C 29.97in /  1014.8hPa NE 5.9mph /  9.5km/h 9mph /  14.5km/h 48.9% 0.00in /  0mm 680 W/m2
15:54 87.4 °F /  30.8 °C 65.9 °F /  18.8 °C 29.97in /  1014.8hPa NE 7.1mph /  11.4km/h 7mph /  11.3km/h 49% 0.00in /  0mm 625 W/m2
15:59 87.4 °F /  30.8 °C 65.8 °F /  18.8 °C 29.97in /  1014.8hPa North 7.2mph /  11.6km/h 9mph /  14.5km/h 48.9% 0.00in /  0mm 623 W/m2
16:04 87.4 °F /  30.8 °C 65.6 °F /  18.7 °C 29.97in /  1014.8hPa NNE 8.7mph /  14km/h 9mph /  14.5km/h 48.5% 0.00in /  0mm 604 W/m2
16:09 87.4 °F /  30.8 °C 65.4 °F /  18.6 °C 29.97in /  1014.8hPa NNE 8.8mph /  14.2km/h 9mph /  14.5km/h 48.3% 0.00in /  0mm 596 W/m2
16:14 87.3 °F /  30.7 °C 65.4 °F /  18.6 °C 29.97in /  1014.8hPa NNE 6.6mph /  10.6km/h 10mph /  16.1km/h 48.3% 0.00in /  0mm 578 W/m2
16:19 87.4 °F /  30.8 °C 65.5 °F /  18.6 °C 29.97in /  1014.8hPa NNE 7.6mph /  12.2km/h 8mph /  12.9km/h 48.3% 0.00in /  0mm 574 W/m2
16:24 87.6 °F /  30.9 °C 65.6 °F /  18.7 °C 29.97in /  1014.8hPa NNE 7.4mph /  11.9km/h 9mph /  14.5km/h 48.2% 0.00in /  0mm 561 W/m2
16:29 87.4 °F /  30.8 °C 65.4 °F /  18.6 °C 29.97in /  1014.8hPa ENE 7mph /  11.3km/h 3.4mph /  5.5km/h 48.3% 0.00in /  0mm 550 W/m2
16:34 87.2 °F /  30.7 °C 65 °F /  18.3 °C 29.97in /  1014.8hPa NE 8.7mph /  14km/h 8mph /  12.9km/h 47.9% 0.00in /  0mm 572 W/m2
16:39 86.8 °F /  30.4 °C 64.9 °F /  18.3 °C 29.97in /  1014.8hPa NNE 8.7mph /  14km/h 12mph /  19.3km/h 48.2% 0.00in /  0mm 474 W/m2
16:44 86.2 °F /  30.1 °C 64.6 °F /  18.1 °C 29.97in /  1014.8hPa NNE 6.1mph /  9.8km/h 12mph /  19.3km/h 48.7% 0.00in /  0mm 155 W/m2
16:49 85.5 °F /  29.7 °C 64.1 °F /  17.8 °C 29.97in /  1014.8hPa North 5.4mph /  8.7km/h 8mph /  12.9km/h 49% 0.00in /  0mm 460 W/m2
16:54 85.4 °F /  29.7 °C 64.1 °F /  17.8 °C 29.97in /  1014.8hPa NNW 6mph /  9.7km/h 8mph /  12.9km/h 49.1% 0.00in /  0mm 451 W/m2
16:59 85.5 °F /  29.7 °C 63.8 °F /  17.7 °C 29.97in /  1014.8hPa NNE 7.5mph /  12.1km/h 11mph /  17.7km/h 48.5% 0.00in /  0mm 400 W/m2
17:04 85.6 °F /  29.8 °C 64.7 °F /  18.2 °C 29.97in /  1014.8hPa NNE 6.3mph /  10.1km/h 2.9mph /  4.7km/h 49.9% 0.00in /  0mm 394 W/m2
17:09 85.7 °F /  29.8 °C 64.5 °F /  18.1 °C 29.96in /  1014.4hPa NNW 8.7mph /  14km/h 8mph /  12.9km/h 49.2% 0.00in /  0mm 383 W/m2
17:14 85.7 °F /  29.8 °C 64.4 °F /  18 °C 29.96in /  1014.4hPa North 8.3mph /  13.4km/h 11mph /  17.7km/h 49% 0.00in /  0mm 351 W/m2
17:19 85.6 °F /  29.8 °C 64.9 °F /  18.3 °C 29.96in /  1014.4hPa NNE 9.1mph /  14.6km/h 4.2mph /  6.8km/h 50% 0.00in /  0mm 349 W/m2
17:24 85.4 °F /  29.7 °C 64.5 °F /  18.1 °C 29.96in /  1014.4hPa NNE 5.2mph /  8.4km/h 8mph /  12.9km/h 49.8% 0.00in /  0mm 324 W/m2
17:29 85.3 °F /  29.6 °C 64.8 °F /  18.2 °C 29.96in /  1014.4hPa NNW 4.8mph /  7.7km/h 7mph /  11.3km/h 50.4% 0.00in /  0mm 297 W/m2
17:33 85.2 °F /  29.6 °C 64 °F /  17.8 °C 29.96in /  1014.4hPa NW 7.7mph /  12.4km/h 7mph /  11.3km/h 49.3% 0.00in /  0mm 298 W/m2
17:39 85.1 °F /  29.5 °C 63.9 °F /  17.7 °C 29.96in /  1014.4hPa NNE 8.4mph /  13.5km/h 10mph /  16.1km/h 49.3% 0.00in /  0mm 290 W/m2
17:44 84.9 °F /  29.4 °C 63.7 °F /  17.6 °C 29.96in /  1014.4hPa NE 7.4mph /  11.9km/h 9mph /  14.5km/h 49.2% 0.00in /  0mm 248 W/m2
17:49 84.7 °F /  29.3 °C 63.6 °F /  17.6 °C 29.96in /  1014.4hPa NE 7.8mph /  12.6km/h 12mph /  19.3km/h 49.3% 0.00in /  0mm 211 W/m2
17:54 84.5 °F /  29.2 °C 63.7 °F /  17.6 °C 29.96in /  1014.4hPa NNE 6.4mph /  10.3km/h 8mph /  12.9km/h 49.8% 0.00in /  0mm 178 W/m2
17:59 84.3 °F /  29.1 °C 63.2 °F /  17.3 °C 29.96in /  1014.4hPa North 7.7mph /  12.4km/h 11mph /  17.7km/h 49.2% 0.00in /  0mm 178 W/m2
18:04 84 °F /  28.9 °C 63.1 °F /  17.3 °C 29.96in /  1014.4hPa NNE 5mph /  8km/h 11mph /  17.7km/h 49.5% 0.00in /  0mm 174 W/m2
18:09 83.8 °F /  28.8 °C 63.3 °F /  17.4 °C 29.96in /  1014.4hPa NE 5.2mph /  8.4km/h 6mph /  9.7km/h 50.3% 0.00in /  0mm 167 W/m2
18:14 83.8 °F /  28.8 °C 64.5 °F /  18.1 °C 29.96in /  1014.4hPa NNW 4.5mph /  7.2km/h 7mph /  11.3km/h 52.3% 0.00in /  0mm 161 W/m2
18:19 83.7 °F /  28.7 °C 63.9 °F /  17.7 °C 29.96in /  1014.4hPa NW 6.1mph /  9.8km/h 6mph /  9.7km/h 51.5% 0.00in /  0mm 139 W/m2
18:24 83.6 °F /  28.7 °C 63.6 °F /  17.6 °C 29.96in /  1014.4hPa NNW 6.7mph /  10.8km/h 7mph /  11.3km/h 51.2% 0.00in /  0mm 119 W/m2
18:29 83.3 °F /  28.5 °C 63.8 °F /  17.7 °C 29.96in /  1014.4hPa NW 5.2mph /  8.4km/h 11mph /  17.7km/h 52% 0.00in /  0mm 101 W/m2
18:34 82.9 °F /  28.3 °C 63.3 °F /  17.4 °C 29.96in /  1014.4hPa NW 4.9mph /  7.9km/h 2.9mph /  4.7km/h 51.6% 0.00in /  0mm 86 W/m2
18:39 82.7 °F /  28.2 °C 63.3 °F /  17.4 °C 29.96in /  1014.4hPa NNW 2.8mph /  4.5km/h 6mph /  9.7km/h 52% 0.00in /  0mm 72 W/m2
18:44 82.3 °F /  27.9 °C 63.2 °F /  17.3 °C 29.96in /  1014.4hPa NNW 3.3mph /  5.3km/h 4mph /  6.4km/h 52.5% 0.00in /  0mm 50 W/m2
18:49 82 °F /  27.8 °C 63.2 °F /  17.3 °C 29.96in /  1014.4hPa NNW 5mph /  8km/h 4mph /  6.4km/h 53% 0.00in /  0mm 39 W/m2
18:54 81.6 °F /  27.6 °C 63 °F /  17.2 °C 29.97in /  1014.8hPa NNW 4.1mph /  6.6km/h 6mph /  9.7km/h 53.5% 0.00in /  0mm 32 W/m2
18:59 81.1 °F /  27.3 °C 62.8 °F /  17.1 °C 29.97in /  1014.8hPa NNW 4.7mph /  7.6km/h 5mph /  8km/h 53.7% 0.00in /  0mm 26 W/m2
19:03 80.8 °F /  27.1 °C 62.6 °F /  17 °C 29.97in /  1014.8hPa North 4.6mph /  7.4km/h 6mph /  9.7km/h 54% 0.00in /  0mm 23 W/m2
19:09 80.5 °F /  26.9 °C 62.3 °F /  16.8 °C 29.97in /  1014.8hPa NNW 4.3mph /  6.9km/h 6mph /  9.7km/h 54% 0.00in /  0mm 19 W/m2
19:14 80.3 °F /  26.8 °C 62.4 °F /  16.9 °C 29.97in /  1014.8hPa North 4.3mph /  6.9km/h 6mph /  9.7km/h 54.5% 0.00in /  0mm 15 W/m2
19:19 80 °F /  26.7 °C 62.4 °F /  16.9 °C 29.97in /  1014.8hPa North 5.5mph /  8.9km/h 5mph /  8km/h 55% 0.00in /  0mm 12 W/m2
19:24 79.7 °F /  26.5 °C 62.1 °F /  16.7 °C 29.97in /  1014.8hPa North 6mph /  9.7km/h 7mph /  11.3km/h 55% 0.00in /  0mm 9 W/m2
19:29 79.4 °F /  26.3 °C 61.9 °F /  16.6 °C 29.97in /  1014.8hPa North 5.2mph /  8.4km/h 7mph /  11.3km/h 55% 0.00in /  0mm 8 W/m2
19:34 79.2 °F /  26.2 °C 61.7 °F /  16.5 °C 29.97in /  1014.8hPa North 5.7mph /  9.2km/h 6mph /  9.7km/h 55% 0.00in /  0mm 6 W/m2
19:39 79 °F /  26.1 °C 61.4 °F /  16.3 °C 29.97in /  1014.8hPa North 5.8mph /  9.3km/h 7mph /  11.3km/h 55% 0.00in /  0mm 4 W/m2
19:43 78.8 °F /  26 °C 61.3 °F /  16.3 °C 29.97in /  1014.8hPa North 3.8mph /  6.1km/h 7mph /  11.3km/h 55% 0.00in /  0mm 2 W/m2
19:49 78.5 °F /  25.8 °C 61.6 °F /  16.4 °C 29.97in /  1014.8hPa North 2.9mph /  4.7km/h 5mph /  8km/h 56.2% 0.00in /  0mm 1 W/m2
19:54 78.3 °F /  25.7 °C 61.8 °F /  16.6 °C 29.97in /  1014.8hPa North 2.3mph /  3.7km/h 4mph /  6.4km/h 57% 0.00in /  0mm 0 W/m2
19:59 78.1 °F /  25.6 °C 62 °F /  16.7 °C 29.97in /  1014.8hPa NNE 0.3mph /  0.5km/h 3mph /  4.8km/h 57.7% 0.00in /  0mm 0 W/m2
20:04 77.9 °F /  25.5 °C 62.3 °F /  16.8 °C 29.97in /  1014.8hPa NNE 1mph /  1.6km/h 0.4mph /  0.6km/h 58.9% 0.00in /  0mm 0 W/m2
20:08 77.6 °F /  25.3 °C 62.2 °F /  16.8 °C 29.97in /  1014.8hPa North 0.9mph /  1.4km/h 1mph /  1.6km/h 59.2% 0.00in /  0mm 0 W/m2
20:14 77.1 °F /  25.1 °C 62.4 °F /  16.9 °C 29.97in /  1014.8hPa SW 2.5mph /  4km/h 2mph /  3.2km/h 60.7% 0.00in /  0mm 0 W/m2
20:19 76.5 °F /  24.7 °C 62.5 °F /  16.9 °C 29.97in /  1014.8hPa SSW 2.8mph /  4.5km/h 3mph /  4.8km/h 62% 0.00in /  0mm 0 W/m2
20:24 76 °F /  24.4 °C 62 °F /  16.7 °C 29.98in /  1015.1hPa South 3.3mph /  5.3km/h 3mph /  4.8km/h 61.7% 0.00in /  0mm 0 W/m2
20:29 75.7 °F /  24.3 °C 62.2 °F /  16.8 °C 29.98in /  1015.1hPa South 2mph /  3.2km/h 3mph /  4.8km/h 63.1% 0.00in /  0mm 0 W/m2
20:34 75.4 °F /  24.1 °C 62.4 °F /  16.9 °C 29.98in /  1015.1hPa SSW 1.8mph /  2.9km/h 2mph /  3.2km/h 64.1% 0.00in /  0mm 0 W/m2
20:39 74.9 °F /  23.8 °C 62.4 °F /  16.9 °C 29.98in /  1015.1hPa SSW 3.2mph /  5.1km/h 3mph /  4.8km/h 65% 0.00in /  0mm 0 W/m2
20:44 74.3 °F /  23.5 °C 62.7 °F /  17.1 °C 29.98in /  1015.1hPa SSW 2.8mph /  4.5km/h 2.7mph /  4.3km/h 67.1% 0.00in /  0mm 0 W/m2
20:49 74 °F /  23.3 °C 62.5 °F /  16.9 °C 29.99in /  1015.5hPa WSW 2.9mph /  4.7km/h 4mph /  6.4km/h 67.1% 0.00in /  0mm 0 W/m2
20:54 73.8 °F /  23.2 °C 62.1 °F /  16.7 °C 29.99in /  1015.5hPa West 2.9mph /  4.7km/h 3mph /  4.8km/h 67% 0.00in /  0mm 0 W/m2
20:58 73.6 °F /  23.1 °C 61.9 °F /  16.6 °C 29.99in /  1015.5hPa West 2.7mph /  4.3km/h 4mph /  6.4km/h 67% 0.00in /  0mm 0 W/m2
Knjazevac, Serbia
Compliments of Weather Underground - 2 mb